sensor_id;sensor_type;location;lat;lon;timestamp;temperature;humidity
44117;DHT22;29781;49.480;8.512;2023-11-19T00:01:46;8.80;99.90
44117;DHT22;29781;49.480;8.512;2023-11-19T00:04:12;8.80;99.90
44117;DHT22;29781;49.480;8.512;2023-11-19T00:06:39;8.80;99.90
44117;DHT22;29781;49.480;8.512;2023-11-19T00:09:04;8.80;99.90
44117;DHT22;29781;49.480;8.512;2023-11-19T00:11:30;8.80;99.90
44117;DHT22;29781;49.480;8.512;2023-11-19T00:13:55;8.80;99.90
44117;DHT22;29781;49.480;8.512;2023-11-19T00:16:21;8.80;99.90
44117;DHT22;29781;49.480;8.512;2023-11-19T00:18:46;8.80;99.90
44117;DHT22;29781;49.480;8.512;2023-11-19T00:21:12;8.80;99.90
44117;DHT22;29781;49.480;8.512;2023-11-19T00:23:38;8.80;99.90
44117;DHT22;29781;49.480;8.512;2023-11-19T00:26:03;8.80;99.90
44117;DHT22;29781;49.480;8.512;2023-11-19T00:28:32;8.80;99.90
44117;DHT22;29781;49.480;8.512;2023-11-19T00:30:58;8.80;99.90
44117;DHT22;29781;49.480;8.512;2023-11-19T00:33:24;8.80;99.90
44117;DHT22;29781;49.480;8.512;2023-11-19T00:35:49;8.80;99.90
44117;DHT22;29781;49.480;8.512;2023-11-19T00:38:15;8.80;99.90
44117;DHT22;29781;49.480;8.512;2023-11-19T00:40:41;8.80;99.90
44117;DHT22;29781;49.480;8.512;2023-11-19T00:43:07;8.90;99.90
44117;DHT22;29781;49.480;8.512;2023-11-19T00:45:32;8.80;99.90
44117;DHT22;29781;49.480;8.512;2023-11-19T00:47:58;8.90;99.90
44117;DHT22;29781;49.480;8.512;2023-11-19T00:50:25;8.90;99.90
44117;DHT22;29781;49.480;8.512;2023-11-19T00:52:50;8.90;99.90
44117;DHT22;29781;49.480;8.512;2023-11-19T00:55:16;8.90;99.90
44117;DHT22;29781;49.480;8.512;2023-11-19T00:57:43;8.90;99.90
44117;DHT22;29781;49.480;8.512;2023-11-19T01:00:09;9.00;99.90
44117;DHT22;29781;49.480;8.512;2023-11-19T01:02:44;9.00;99.90
44117;DHT22;29781;49.480;8.512;2023-11-19T01:05:10;9.00;99.90
44117;DHT22;29781;49.480;8.512;2023-11-19T01:07:39;9.00;99.90
44117;DHT22;29781;49.480;8.512;2023-11-19T01:10:05;9.00;99.90
44117;DHT22;29781;49.480;8.512;2023-11-19T01:12:31;9.00;99.90
44117;DHT22;29781;49.480;8.512;2023-11-19T01:14:56;9.10;99.90
44117;DHT22;29781;49.480;8.512;2023-11-19T01:17:23;9.00;99.90
44117;DHT22;29781;49.480;8.512;2023-11-19T01:19:48;9.00;99.90
44117;DHT22;29781;49.480;8.512;2023-11-19T01:22:15;9.00;99.90
44117;DHT22;29781;49.480;8.512;2023-11-19T01:24:41;9.00;99.90
44117;DHT22;29781;49.480;8.512;2023-11-19T01:27:06;9.00;99.90
44117;DHT22;29781;49.480;8.512;2023-11-19T01:29:32;9.00;99.90
44117;DHT22;29781;49.480;8.512;2023-11-19T01:31:57;9.10;99.90
44117;DHT22;29781;49.480;8.512;2023-11-19T01:34:23;9.10;99.90
44117;DHT22;29781;49.480;8.512;2023-11-19T01:36:48;9.10;99.90
44117;DHT22;29781;49.480;8.512;2023-11-19T01:39:14;9.10;99.90
44117;DHT22;29781;49.480;8.512;2023-11-19T01:41:41;9.10;99.90
44117;DHT22;29781;49.480;8.512;2023-11-19T01:44:07;9.10;99.90
44117;DHT22;29781;49.480;8.512;2023-11-19T01:46:33;9.10;99.90
44117;DHT22;29781;49.480;8.512;2023-11-19T01:49:00;9.10;99.90
44117;DHT22;29781;49.480;8.512;2023-11-19T01:51:26;9.20;99.90
44117;DHT22;29781;49.480;8.512;2023-11-19T01:53:52;9.10;99.90
44117;DHT22;29781;49.480;8.512;2023-11-19T01:56:18;9.10;99.90
44117;DHT22;29781;49.480;8.512;2023-11-19T01:58:45;9.10;99.90
44117;DHT22;29781;49.480;8.512;2023-11-19T02:01:12;9.10;99.90
44117;DHT22;29781;49.480;8.512;2023-11-19T02:03:38;9.20;99.90
44117;DHT22;29781;49.480;8.512;2023-11-19T02:06:05;9.20;99.90
44117;DHT22;29781;49.480;8.512;2023-11-19T02:08:30;9.20;99.90
44117;DHT22;29781;49.480;8.512;2023-11-19T02:10:56;9.20;99.90
44117;DHT22;29781;49.480;8.512;2023-11-19T02:13:22;9.20;99.90
44117;DHT22;29781;49.480;8.512;2023-11-19T02:15:47;9.20;99.90
44117;DHT22;29781;49.480;8.512;2023-11-19T02:18:24;9.20;99.90
44117;DHT22;29781;49.480;8.512;2023-11-19T02:20:53;9.20;99.90
44117;DHT22;29781;49.480;8.512;2023-11-19T02:23:20;9.20;99.90
44117;DHT22;29781;49.480;8.512;2023-11-19T02:28:39;9.30;99.90
44117;DHT22;29781;49.480;8.512;2023-11-19T02:31:05;9.30;99.90
44117;DHT22;29781;49.480;8.512;2023-11-19T02:33:31;9.30;99.90
44117;DHT22;29781;49.480;8.512;2023-11-19T02:35:57;9.30;99.90
44117;DHT22;29781;49.480;8.512;2023-11-19T02:38:22;9.40;99.90
44117;DHT22;29781;49.480;8.512;2023-11-19T02:40:48;9.40;99.90
44117;DHT22;29781;49.480;8.512;2023-11-19T02:43:14;9.40;99.90
44117;DHT22;29781;49.480;8.512;2023-11-19T02:45:40;9.40;99.90
44117;DHT22;29781;49.480;8.512;2023-11-19T02:48:05;9.40;99.90
44117;DHT22;29781;49.480;8.512;2023-11-19T02:50:31;9.40;99.90
44117;DHT22;29781;49.480;8.512;2023-11-19T02:52:57;9.50;99.90
44117;DHT22;29781;49.480;8.512;2023-11-19T02:55:23;9.50;99.90
44117;DHT22;29781;49.480;8.512;2023-11-19T02:57:50;9.50;99.90
44117;DHT22;29781;49.480;8.512;2023-11-19T03:00:20;9.50;99.90
44117;DHT22;29781;49.480;8.512;2023-11-19T03:02:50;9.50;99.90
44117;DHT22;29781;49.480;8.512;2023-11-19T03:05:24;9.50;99.90
44117;DHT22;29781;49.480;8.512;2023-11-19T03:07:50;9.50;99.90
44117;DHT22;29781;49.480;8.512;2023-11-19T03:10:16;9.50;99.90
44117;DHT22;29781;49.480;8.512;2023-11-19T03:12:42;9.60;99.90
44117;DHT22;29781;49.480;8.512;2023-11-19T03:15:08;9.60;99.90
44117;DHT22;29781;49.480;8.512;2023-11-19T03:17:40;9.60;99.90
44117;DHT22;29781;49.480;8.512;2023-11-19T03:20:07;9.60;99.90
44117;DHT22;29781;49.480;8.512;2023-11-19T03:22:39;9.70;99.90
44117;DHT22;29781;49.480;8.512;2023-11-19T03:25:07;9.60;99.90
44117;DHT22;29781;49.480;8.512;2023-11-19T03:27:36;9.70;99.90
44117;DHT22;29781;49.480;8.512;2023-11-19T03:30:04;9.70;99.90
44117;DHT22;29781;49.480;8.512;2023-11-19T03:32:31;9.70;99.90
44117;DHT22;29781;49.480;8.512;2023-11-19T03:34:58;9.70;99.90
44117;DHT22;29781;49.480;8.512;2023-11-19T03:37:25;9.80;99.90
44117;DHT22;29781;49.480;8.512;2023-11-19T03:39:51;9.80;99.90
44117;DHT22;29781;49.480;8.512;2023-11-19T03:42:19;9.80;99.90
44117;DHT22;29781;49.480;8.512;2023-11-19T03:44:44;9.90;99.90
44117;DHT22;29781;49.480;8.512;2023-11-19T03:47:10;9.90;99.90
44117;DHT22;29781;49.480;8.512;2023-11-19T03:49:35;9.90;99.90
44117;DHT22;29781;49.480;8.512;2023-11-19T03:52:01;9.90;99.90
44117;DHT22;29781;49.480;8.512;2023-11-19T03:54:27;9.90;99.90
44117;DHT22;29781;49.480;8.512;2023-11-19T03:56:53;9.90;99.90
44117;DHT22;29781;49.480;8.512;2023-11-19T03:59:18;9.90;99.90
44117;DHT22;29781;49.480;8.512;2023-11-19T04:01:45;10.00;99.90
44117;DHT22;29781;49.480;8.512;2023-11-19T04:04:11;10.00;99.90
44117;DHT22;29781;49.480;8.512;2023-11-19T04:06:37;10.00;99.90
44117;DHT22;29781;49.480;8.512;2023-11-19T04:09:03;10.00;99.90
44117;DHT22;29781;49.480;8.512;2023-11-19T04:11:28;10.10;99.90
44117;DHT22;29781;49.480;8.512;2023-11-19T04:13:54;10.10;99.90
44117;DHT22;29781;49.480;8.512;2023-11-19T04:16:26;10.10;99.90
44117;DHT22;29781;49.480;8.512;2023-11-19T04:18:51;10.10;99.90
44117;DHT22;29781;49.480;8.512;2023-11-19T04:21:17;10.10;99.90
44117;DHT22;29781;49.480;8.512;2023-11-19T04:23:42;10.20;99.90
44117;DHT22;29781;49.480;8.512;2023-11-19T04:26:07;10.20;99.90
44117;DHT22;29781;49.480;8.512;2023-11-19T04:28:33;10.10;99.90
44117;DHT22;29781;49.480;8.512;2023-11-19T04:30:59;10.10;99.90
44117;DHT22;29781;49.480;8.512;2023-11-19T04:33:24;10.20;99.90
44117;DHT22;29781;49.480;8.512;2023-11-19T04:35:50;10.20;99.90
44117;DHT22;29781;49.480;8.512;2023-11-19T04:38:16;10.20;99.90
44117;DHT22;29781;49.480;8.512;2023-11-19T04:40:41;10.20;99.90
44117;DHT22;29781;49.480;8.512;2023-11-19T04:43:07;10.30;99.90
44117;DHT22;29781;49.480;8.512;2023-11-19T04:45:32;10.30;99.90
44117;DHT22;29781;49.480;8.512;2023-11-19T04:47:58;10.30;99.90
44117;DHT22;29781;49.480;8.512;2023-11-19T04:50:24;10.30;99.90
44117;DHT22;29781;49.480;8.512;2023-11-19T04:52:52;10.30;99.90
44117;DHT22;29781;49.480;8.512;2023-11-19T04:55:19;10.40;99.90
44117;DHT22;29781;49.480;8.512;2023-11-19T04:57:44;10.40;99.90
44117;DHT22;29781;49.480;8.512;2023-11-19T05:00:10;10.40;99.90
44117;DHT22;29781;49.480;8.512;2023-11-19T05:02:36;10.50;99.90
44117;DHT22;29781;49.480;8.512;2023-11-19T05:05:03;10.40;99.90
44117;DHT22;29781;49.480;8.512;2023-11-19T05:07:30;10.50;99.90
44117;DHT22;29781;49.480;8.512;2023-11-19T05:09:55;10.50;99.90
44117;DHT22;29781;49.480;8.512;2023-11-19T05:12:21;10.50;99.90
44117;DHT22;29781;49.480;8.512;2023-11-19T05:14:47;10.60;99.90
44117;DHT22;29781;49.480;8.512;2023-11-19T05:17:18;10.60;99.90
44117;DHT22;29781;49.480;8.512;2023-11-19T05:19:44;10.60;99.90
44117;DHT22;29781;49.480;8.512;2023-11-19T05:22:10;10.70;99.90
44117;DHT22;29781;49.480;8.512;2023-11-19T05:24:35;10.70;99.90
44117;DHT22;29781;49.480;8.512;2023-11-19T05:27:01;10.70;99.90
44117;DHT22;29781;49.480;8.512;2023-11-19T05:29:27;10.70;99.90
44117;DHT22;29781;49.480;8.512;2023-11-19T05:31:53;10.80;99.90
44117;DHT22;29781;49.480;8.512;2023-11-19T05:34:20;10.80;99.90
44117;DHT22;29781;49.480;8.512;2023-11-19T05:36:46;10.80;99.90
44117;DHT22;29781;49.480;8.512;2023-11-19T05:39:12;10.80;99.90
44117;DHT22;29781;49.480;8.512;2023-11-19T05:41:37;10.80;99.90
44117;DHT22;29781;49.480;8.512;2023-11-19T05:44:03;10.80;99.90
44117;DHT22;29781;49.480;8.512;2023-11-19T05:46:28;10.80;99.90
44117;DHT22;29781;49.480;8.512;2023-11-19T05:48:54;10.80;99.90
44117;DHT22;29781;49.480;8.512;2023-11-19T05:51:19;10.80;99.90
44117;DHT22;29781;49.480;8.512;2023-11-19T05:53:45;10.80;99.90
44117;DHT22;29781;49.480;8.512;2023-11-19T05:56:11;10.80;99.90
44117;DHT22;29781;49.480;8.512;2023-11-19T05:58:37;10.80;99.90
44117;DHT22;29781;49.480;8.512;2023-11-19T06:01:05;10.80;99.90
44117;DHT22;29781;49.480;8.512;2023-11-19T06:03:32;10.80;99.90
44117;DHT22;29781;49.480;8.512;2023-11-19T06:05:58;10.90;99.90
44117;DHT22;29781;49.480;8.512;2023-11-19T06:08:24;10.90;99.90
44117;DHT22;29781;49.480;8.512;2023-11-19T06:10:49;10.90;99.90
44117;DHT22;29781;49.480;8.512;2023-11-19T06:13:16;10.90;99.90
44117;DHT22;29781;49.480;8.512;2023-11-19T06:15:42;11.00;99.90
44117;DHT22;29781;49.480;8.512;2023-11-19T06:18:08;11.00;99.90
44117;DHT22;29781;49.480;8.512;2023-11-19T06:20:34;11.00;99.90
44117;DHT22;29781;49.480;8.512;2023-11-19T06:23:00;11.10;99.90
44117;DHT22;29781;49.480;8.512;2023-11-19T06:25:26;11.10;99.90
44117;DHT22;29781;49.480;8.512;2023-11-19T06:27:52;11.10;99.90
44117;DHT22;29781;49.480;8.512;2023-11-19T06:30:18;11.10;99.90
44117;DHT22;29781;49.480;8.512;2023-11-19T06:32:44;11.10;99.90
44117;DHT22;29781;49.480;8.512;2023-11-19T06:35:09;11.20;99.90
44117;DHT22;29781;49.480;8.512;2023-11-19T06:37:38;11.20;99.90
44117;DHT22;29781;49.480;8.512;2023-11-19T06:40:03;11.20;99.90
44117;DHT22;29781;49.480;8.512;2023-11-19T06:42:30;11.20;99.90
44117;DHT22;29781;49.480;8.512;2023-11-19T06:44:56;11.20;99.90
44117;DHT22;29781;49.480;8.512;2023-11-19T06:47:25;11.20;99.90
44117;DHT22;29781;49.480;8.512;2023-11-19T06:49:51;11.30;99.90
44117;DHT22;29781;49.480;8.512;2023-11-19T06:52:16;11.30;99.90
44117;DHT22;29781;49.480;8.512;2023-11-19T06:54:42;11.30;99.90
44117;DHT22;29781;49.480;8.512;2023-11-19T06:57:07;11.30;99.90
44117;DHT22;29781;49.480;8.512;2023-11-19T06:59:34;11.30;99.90
44117;DHT22;29781;49.480;8.512;2023-11-19T07:02:00;11.30;99.90
44117;DHT22;29781;49.480;8.512;2023-11-19T07:04:25;11.40;99.90
44117;DHT22;29781;49.480;8.512;2023-11-19T07:06:51;11.40;99.90
44117;DHT22;29781;49.480;8.512;2023-11-19T07:09:18;11.30;99.90
44117;DHT22;29781;49.480;8.512;2023-11-19T07:11:44;11.40;99.90
44117;DHT22;29781;49.480;8.512;2023-11-19T07:14:11;11.40;99.90
44117;DHT22;29781;49.480;8.512;2023-11-19T07:16:37;11.40;99.90
44117;DHT22;29781;49.480;8.512;2023-11-19T07:19:04;11.40;99.90
44117;DHT22;29781;49.480;8.512;2023-11-19T07:21:30;11.40;99.90
44117;DHT22;29781;49.480;8.512;2023-11-19T07:23:56;11.50;99.90
44117;DHT22;29781;49.480;8.512;2023-11-19T07:26:22;11.40;99.90
44117;DHT22;29781;49.480;8.512;2023-11-19T07:28:49;11.50;99.90
44117;DHT22;29781;49.480;8.512;2023-11-19T07:31:14;11.40;99.90
44117;DHT22;29781;49.480;8.512;2023-11-19T07:33:40;11.50;99.90
44117;DHT22;29781;49.480;8.512;2023-11-19T07:36:09;11.50;99.90
44117;DHT22;29781;49.480;8.512;2023-11-19T07:38:35;11.50;99.90
44117;DHT22;29781;49.480;8.512;2023-11-19T07:41:01;11.50;99.90
44117;DHT22;29781;49.480;8.512;2023-11-19T07:43:26;11.50;99.90
44117;DHT22;29781;49.480;8.512;2023-11-19T07:45:52;11.50;99.90
44117;DHT22;29781;49.480;8.512;2023-11-19T07:48:17;11.50;99.90
44117;DHT22;29781;49.480;8.512;2023-11-19T07:50:48;11.50;99.90
44117;DHT22;29781;49.480;8.512;2023-11-19T07:53:18;11.60;99.90
44117;DHT22;29781;49.480;8.512;2023-11-19T07:55:44;11.60;99.90
44117;DHT22;29781;49.480;8.512;2023-11-19T07:58:12;11.70;99.90
44117;DHT22;29781;49.480;8.512;2023-11-19T08:00:38;11.80;99.90
44117;DHT22;29781;49.480;8.512;2023-11-19T08:03:04;11.90;99.90
44117;DHT22;29781;49.480;8.512;2023-11-19T08:05:31;11.90;99.90
44117;DHT22;29781;49.480;8.512;2023-11-19T08:07:57;11.90;99.90
44117;DHT22;29781;49.480;8.512;2023-11-19T08:10:23;11.80;99.90
44117;DHT22;29781;49.480;8.512;2023-11-19T08:12:49;11.80;99.90
44117;DHT22;29781;49.480;8.512;2023-11-19T08:15:15;11.80;99.90
44117;DHT22;29781;49.480;8.512;2023-11-19T08:17:41;11.90;99.90
44117;DHT22;29781;49.480;8.512;2023-11-19T08:20:08;11.80;99.90
44117;DHT22;29781;49.480;8.512;2023-11-19T08:22:36;11.90;99.90
44117;DHT22;29781;49.480;8.512;2023-11-19T08:25:02;11.90;99.90
44117;DHT22;29781;49.480;8.512;2023-11-19T08:27:28;11.90;99.90
44117;DHT22;29781;49.480;8.512;2023-11-19T08:29:54;11.90;99.90
44117;DHT22;29781;49.480;8.512;2023-11-19T08:32:26;12.00;99.90
44117;DHT22;29781;49.480;8.512;2023-11-19T08:34:51;11.90;99.90
44117;DHT22;29781;49.480;8.512;2023-11-19T08:37:17;11.90;99.90
44117;DHT22;29781;49.480;8.512;2023-11-19T08:39:49;11.90;99.90
44117;DHT22;29781;49.480;8.512;2023-11-19T08:42:14;12.00;99.90
44117;DHT22;29781;49.480;8.512;2023-11-19T08:44:41;12.00;99.90
44117;DHT22;29781;49.480;8.512;2023-11-19T08:47:09;12.10;99.90
44117;DHT22;29781;49.480;8.512;2023-11-19T08:49:34;12.10;99.90
44117;DHT22;29781;49.480;8.512;2023-11-19T08:52:00;12.20;99.90
44117;DHT22;29781;49.480;8.512;2023-11-19T08:54:25;12.30;99.90
44117;DHT22;29781;49.480;8.512;2023-11-19T08:56:51;12.40;99.90
44117;DHT22;29781;49.480;8.512;2023-11-19T08:59:16;12.50;99.90
44117;DHT22;29781;49.480;8.512;2023-11-19T09:01:43;12.50;99.90
44117;DHT22;29781;49.480;8.512;2023-11-19T09:04:08;12.60;99.90
44117;DHT22;29781;49.480;8.512;2023-11-19T09:06:35;12.60;99.90
44117;DHT22;29781;49.480;8.512;2023-11-19T09:09:01;12.60;99.90
44117;DHT22;29781;49.480;8.512;2023-11-19T09:11:29;12.60;99.90
44117;DHT22;29781;49.480;8.512;2023-11-19T09:13:54;12.70;99.90
44117;DHT22;29781;49.480;8.512;2023-11-19T09:16:20;12.90;99.90
44117;DHT22;29781;49.480;8.512;2023-11-19T09:18:45;13.10;99.90
44117;DHT22;29781;49.480;8.512;2023-11-19T09:21:11;13.20;99.90
44117;DHT22;29781;49.480;8.512;2023-11-19T09:23:37;13.30;99.90
44117;DHT22;29781;49.480;8.512;2023-11-19T09:26:05;13.40;99.90
44117;DHT22;29781;49.480;8.512;2023-11-19T09:28:31;13.50;99.90
44117;DHT22;29781;49.480;8.512;2023-11-19T09:30:57;13.60;99.90
44117;DHT22;29781;49.480;8.512;2023-11-19T09:33:23;13.80;99.90
44117;DHT22;29781;49.480;8.512;2023-11-19T09:35:48;14.00;99.90
44117;DHT22;29781;49.480;8.512;2023-11-19T09:38:15;14.40;99.90
44117;DHT22;29781;49.480;8.512;2023-11-19T09:40:40;14.50;99.90
44117;DHT22;29781;49.480;8.512;2023-11-19T09:43:07;14.70;99.90
44117;DHT22;29781;49.480;8.512;2023-11-19T09:45:51;14.70;99.90
44117;DHT22;29781;49.480;8.512;2023-11-19T09:48:18;14.60;99.90
44117;DHT22;29781;49.480;8.512;2023-11-19T09:50:48;14.50;99.90
44117;DHT22;29781;49.480;8.512;2023-11-19T09:53:14;14.50;99.90
44117;DHT22;29781;49.480;8.512;2023-11-19T09:55:41;14.50;99.90
44117;DHT22;29781;49.480;8.512;2023-11-19T09:58:07;14.40;99.90
44117;DHT22;29781;49.480;8.512;2023-11-19T10:00:33;14.30;99.90
44117;DHT22;29781;49.480;8.512;2023-11-19T10:03:00;14.30;99.90
44117;DHT22;29781;49.480;8.512;2023-11-19T10:05:25;14.30;99.90
44117;DHT22;29781;49.480;8.512;2023-11-19T10:07:52;14.30;99.90
44117;DHT22;29781;49.480;8.512;2023-11-19T10:10:17;14.20;99.90
44117;DHT22;29781;49.480;8.512;2023-11-19T10:12:45;14.10;99.90
44117;DHT22;29781;49.480;8.512;2023-11-19T10:15:20;14.10;99.90
44117;DHT22;29781;49.480;8.512;2023-11-19T10:17:47;14.10;99.90
44117;DHT22;29781;49.480;8.512;2023-11-19T10:20:13;14.30;99.90
44117;DHT22;29781;49.480;8.512;2023-11-19T10:22:39;14.50;99.90
44117;DHT22;29781;49.480;8.512;2023-11-19T10:25:24;14.60;99.90
44117;DHT22;29781;49.480;8.512;2023-11-19T10:27:50;14.70;99.90
44117;DHT22;29781;49.480;8.512;2023-11-19T10:30:21;14.70;99.90
44117;DHT22;29781;49.480;8.512;2023-11-19T10:33:03;14.70;99.90
44117;DHT22;29781;49.480;8.512;2023-11-19T10:35:29;14.80;99.90
44117;DHT22;29781;49.480;8.512;2023-11-19T10:37:54;14.80;99.90
44117;DHT22;29781;49.480;8.512;2023-11-19T10:40:20;14.80;99.90
44117;DHT22;29781;49.480;8.512;2023-11-19T10:42:45;14.90;99.90
44117;DHT22;29781;49.480;8.512;2023-11-19T10:45:22;15.00;99.90
44117;DHT22;29781;49.480;8.512;2023-11-19T10:47:51;15.10;99.90
44117;DHT22;29781;49.480;8.512;2023-11-19T10:50:17;15.20;99.90
44117;DHT22;29781;49.480;8.512;2023-11-19T10:52:44;15.20;99.90
44117;DHT22;29781;49.480;8.512;2023-11-19T10:55:14;15.20;99.90
44117;DHT22;29781;49.480;8.512;2023-11-19T10:57:43;15.10;99.90
44117;DHT22;29781;49.480;8.512;2023-11-19T11:00:15;15.10;99.90
44117;DHT22;29781;49.480;8.512;2023-11-19T11:02:45;14.90;99.90
44117;DHT22;29781;49.480;8.512;2023-11-19T11:05:14;14.80;99.90
44117;DHT22;29781;49.480;8.512;2023-11-19T11:07:40;14.80;99.90
44117;DHT22;29781;49.480;8.512;2023-11-19T11:10:07;14.80;99.90
44117;DHT22;29781;49.480;8.512;2023-11-19T11:12:37;14.80;99.90
44117;DHT22;29781;49.480;8.512;2023-11-19T11:15:06;14.70;99.90
44117;DHT22;29781;49.480;8.512;2023-11-19T11:17:33;14.60;99.90
44117;DHT22;29781;49.480;8.512;2023-11-19T11:19:59;14.60;99.90
44117;DHT22;29781;49.480;8.512;2023-11-19T11:22:26;14.50;99.90
44117;DHT22;29781;49.480;8.512;2023-11-19T11:24:59;14.50;99.90
44117;DHT22;29781;49.480;8.512;2023-11-19T11:27:48;14.50;99.90
44117;DHT22;29781;49.480;8.512;2023-11-19T11:33:17;14.50;99.90
44117;DHT22;29781;49.480;8.512;2023-11-19T11:38:11;14.40;99.90
44117;DHT22;29781;49.480;8.512;2023-11-19T11:40:39;14.40;99.90
44117;DHT22;29781;49.480;8.512;2023-11-19T11:43:44;14.40;99.90
44117;DHT22;29781;49.480;8.512;2023-11-19T11:49:27;14.50;99.90
44117;DHT22;29781;49.480;8.512;2023-11-19T11:51:59;14.60;99.90
44117;DHT22;29781;49.480;8.512;2023-11-19T11:54:29;14.60;99.90
44117;DHT22;29781;49.480;8.512;2023-11-19T11:59:42;15.30;99.90
44117;DHT22;29781;49.480;8.512;2023-11-19T12:02:09;15.40;99.90
44117;DHT22;29781;49.480;8.512;2023-11-19T12:04:36;15.60;99.90
44117;DHT22;29781;49.480;8.512;2023-11-19T12:09:33;16.00;99.90
44117;DHT22;29781;49.480;8.512;2023-11-19T12:12:22;15.80;99.90
44117;DHT22;29781;49.480;8.512;2023-11-19T12:20:03;15.50;99.90
44117;DHT22;29781;49.480;8.512;2023-11-19T12:22:31;15.40;99.90
44117;DHT22;29781;49.480;8.512;2023-11-19T12:24:56;15.30;99.90
44117;DHT22;29781;49.480;8.512;2023-11-19T12:27:22;15.30;99.90
44117;DHT22;29781;49.480;8.512;2023-11-19T12:29:53;15.30;99.90
44117;DHT22;29781;49.480;8.512;2023-11-19T12:32:19;15.20;99.90
44117;DHT22;29781;49.480;8.512;2023-11-19T12:34:45;15.20;99.90
44117;DHT22;29781;49.480;8.512;2023-11-19T12:37:10;15.10;99.90
44117;DHT22;29781;49.480;8.512;2023-11-19T12:39:36;15.00;99.90
44117;DHT22;29781;49.480;8.512;2023-11-19T12:42:01;15.10;99.90
44117;DHT22;29781;49.480;8.512;2023-11-19T12:44:27;15.00;99.90
44117;DHT22;29781;49.480;8.512;2023-11-19T12:47:06;15.00;99.90
44117;DHT22;29781;49.480;8.512;2023-11-19T12:49:35;15.00;99.90
44117;DHT22;29781;49.480;8.512;2023-11-19T12:52:00;14.90;99.90
44117;DHT22;29781;49.480;8.512;2023-11-19T12:54:34;14.90;99.90
44117;DHT22;29781;49.480;8.512;2023-11-19T12:56:59;14.90;99.90
44117;DHT22;29781;49.480;8.512;2023-11-19T12:59:25;14.80;99.90
44117;DHT22;29781;49.480;8.512;2023-11-19T13:01:58;14.90;99.90
44117;DHT22;29781;49.480;8.512;2023-11-19T13:04:29;14.90;99.90
44117;DHT22;29781;49.480;8.512;2023-11-19T13:07:00;14.90;99.90
44117;DHT22;29781;49.480;8.512;2023-11-19T13:09:29;14.90;99.90
44117;DHT22;29781;49.480;8.512;2023-11-19T13:11:55;15.00;99.90
44117;DHT22;29781;49.480;8.512;2023-11-19T13:14:22;15.00;99.90
44117;DHT22;29781;49.480;8.512;2023-11-19T13:16:48;15.00;99.90
44117;DHT22;29781;49.480;8.512;2023-11-19T13:19:15;15.00;99.90
44117;DHT22;29781;49.480;8.512;2023-11-19T13:21:45;15.00;99.90
44117;DHT22;29781;49.480;8.512;2023-11-19T13:24:12;15.00;99.90
44117;DHT22;29781;49.480;8.512;2023-11-19T13:26:38;14.80;99.90
44117;DHT22;29781;49.480;8.512;2023-11-19T13:29:04;14.90;99.90
44117;DHT22;29781;49.480;8.512;2023-11-19T13:31:29;14.90;99.90
44117;DHT22;29781;49.480;8.512;2023-11-19T13:33:55;14.90;99.90
44117;DHT22;29781;49.480;8.512;2023-11-19T13:36:22;14.90;99.90
44117;DHT22;29781;49.480;8.512;2023-11-19T13:38:47;15.00;99.90
44117;DHT22;29781;49.480;8.512;2023-11-19T13:41:13;15.00;99.90
44117;DHT22;29781;49.480;8.512;2023-11-19T13:43:39;15.00;99.90
44117;DHT22;29781;49.480;8.512;2023-11-19T13:46:05;15.00;99.90
44117;DHT22;29781;49.480;8.512;2023-11-19T13:48:31;15.00;99.90
44117;DHT22;29781;49.480;8.512;2023-11-19T13:50:56;14.90;99.90
44117;DHT22;29781;49.480;8.512;2023-11-19T13:53:22;14.90;99.90
44117;DHT22;29781;49.480;8.512;2023-11-19T13:55:49;15.00;99.90
44117;DHT22;29781;49.480;8.512;2023-11-19T13:58:14;14.90;99.90
44117;DHT22;29781;49.480;8.512;2023-11-19T14:00:41;14.90;99.90
44117;DHT22;29781;49.480;8.512;2023-11-19T14:03:07;14.80;99.90
44117;DHT22;29781;49.480;8.512;2023-11-19T14:05:33;14.80;99.90
44117;DHT22;29781;49.480;8.512;2023-11-19T14:07:58;14.80;99.90
44117;DHT22;29781;49.480;8.512;2023-11-19T14:10:24;14.80;99.90
44117;DHT22;29781;49.480;8.512;2023-11-19T14:12:49;14.80;99.90
44117;DHT22;29781;49.480;8.512;2023-11-19T14:15:15;14.80;99.90
44117;DHT22;29781;49.480;8.512;2023-11-19T14:17:45;14.80;99.90
44117;DHT22;29781;49.480;8.512;2023-11-19T14:20:10;14.70;99.90
44117;DHT22;29781;49.480;8.512;2023-11-19T14:22:41;14.80;99.90
44117;DHT22;29781;49.480;8.512;2023-11-19T14:25:07;14.80;99.90
44117;DHT22;29781;49.480;8.512;2023-11-19T14:27:40;14.80;99.90
44117;DHT22;29781;49.480;8.512;2023-11-19T14:30:07;14.80;99.90
44117;DHT22;29781;49.480;8.512;2023-11-19T14:32:33;14.80;99.90
44117;DHT22;29781;49.480;8.512;2023-11-19T14:35:00;14.80;99.90
44117;DHT22;29781;49.480;8.512;2023-11-19T14:37:25;14.80;99.90
44117;DHT22;29781;49.480;8.512;2023-11-19T14:39:51;14.80;99.90
44117;DHT22;29781;49.480;8.512;2023-11-19T14:42:17;14.80;99.90
44117;DHT22;29781;49.480;8.512;2023-11-19T14:44:42;14.80;99.90
44117;DHT22;29781;49.480;8.512;2023-11-19T14:47:08;14.80;99.90
44117;DHT22;29781;49.480;8.512;2023-11-19T14:49:37;14.70;99.90
44117;DHT22;29781;49.480;8.512;2023-11-19T14:52:04;14.70;99.90
44117;DHT22;29781;49.480;8.512;2023-11-19T14:54:29;14.70;99.90
44117;DHT22;29781;49.480;8.512;2023-11-19T14:56:56;14.70;99.90
44117;DHT22;29781;49.480;8.512;2023-11-19T14:59:22;14.70;99.90
44117;DHT22;29781;49.480;8.512;2023-11-19T15:01:47;14.70;99.90
44117;DHT22;29781;49.480;8.512;2023-11-19T15:04:13;14.70;99.90
44117;DHT22;29781;49.480;8.512;2023-11-19T15:06:38;14.60;99.90
44117;DHT22;29781;49.480;8.512;2023-11-19T15:09:04;14.60;99.90
44117;DHT22;29781;49.480;8.512;2023-11-19T15:11:30;14.60;99.90
44117;DHT22;29781;49.480;8.512;2023-11-19T15:13:56;14.60;99.90
44117;DHT22;29781;49.480;8.512;2023-11-19T15:16:22;14.50;99.90
44117;DHT22;29781;49.480;8.512;2023-11-19T15:18:59;14.50;99.90
44117;DHT22;29781;49.480;8.512;2023-11-19T15:21:30;14.40;99.90
44117;DHT22;29781;49.480;8.512;2023-11-19T15:23:56;14.30;99.90
44117;DHT22;29781;49.480;8.512;2023-11-19T15:26:22;14.30;99.90
44117;DHT22;29781;49.480;8.512;2023-11-19T15:28:47;14.20;99.90
44117;DHT22;29781;49.480;8.512;2023-11-19T15:31:13;14.20;99.90
44117;DHT22;29781;49.480;8.512;2023-11-19T15:33:41;14.20;99.90
44117;DHT22;29781;49.480;8.512;2023-11-19T15:36:07;14.20;99.90
44117;DHT22;29781;49.480;8.512;2023-11-19T15:38:34;14.10;99.90
44117;DHT22;29781;49.480;8.512;2023-11-19T15:41:00;14.20;99.90
44117;DHT22;29781;49.480;8.512;2023-11-19T15:43:25;14.10;99.90
44117;DHT22;29781;49.480;8.512;2023-11-19T15:45:51;14.20;99.90
44117;DHT22;29781;49.480;8.512;2023-11-19T15:48:16;14.20;99.90
44117;DHT22;29781;49.480;8.512;2023-11-19T15:50:43;14.30;99.90
44117;DHT22;29781;49.480;8.512;2023-11-19T15:53:10;14.20;99.90
44117;DHT22;29781;49.480;8.512;2023-11-19T15:55:35;14.20;99.90